Time;durP1;ratioP1;P1;durP2;ratioP2;P2;SDS_P1;SDS_P2;PMS_P1;PMS_P2;Temp;Humidity;BMP_temperature;BMP_pressure;BME280_temperature;BME280_humidity;BME280_pressure;Samples;Min_cycle;Max_cycle;Signal;HPM_P1;HPM_P2
2021/10/19 00:00:25;;;;;;;16.33;12.15;;;11.60;98.20;;;;;;5041498;28;20025;-78
2021/10/19 00:02:51;;;;;;;19.17;13.43;;;11.60;98.20;;;;;;5031262;28;20060;-80
2021/10/19 00:05:17;;;;;;;16.80;12.38;;;11.60;98.20;;;;;;5034241;28;20060;-78
2021/10/19 00:07:43;;;;;;;18.05;12.57;;;11.60;98.10;;;;;;5037187;28;20048;-78
2021/10/19 00:10:11;;;;;;;19.95;13.23;;;11.60;98.10;;;;;;5034448;28;20041;-78
2021/10/19 00:12:37;;;;;;;20.13;13.68;;;11.60;98.20;;;;;;5034665;28;20524;-78
2021/10/19 00:15:11;;;;;;;19.85;13.13;;;11.60;98.20;;;;;;5032355;28;20048;-78
2021/10/19 00:17:42;;;;;;;20.48;13.38;;;11.60;98.20;;;;;;5025779;28;20109;-78
2021/10/19 00:20:08;;;;;;;19.10;12.65;;;11.60;98.20;;;;;;5030215;28;20025;-78
2021/10/19 00:22:34;;;;;;;20.35;13.93;;;11.50;98.20;;;;;;5032213;28;20052;-78
2021/10/19 00:25:04;;;;;;;18.45;12.82;;;11.50;98.20;;;;;;5039527;28;20033;-78
2021/10/19 00:27:39;;;;;;;19.17;12.82;;;11.50;98.20;;;;;;5033680;28;20026;-78
2021/10/19 00:30:07;;;;;;;19.05;12.57;;;11.50;98.20;;;;;;5023337;28;20034;-78
2021/10/19 00:32:32;;;;;;;16.08;12.23;;;11.60;98.20;;;;;;5024798;28;20038;-78
2021/10/19 00:34:58;;;;;;;18.08;12.68;;;11.60;98.20;;;;;;5031892;28;20044;-78
2021/10/19 00:37:23;;;;;;;16.17;11.85;;;11.60;98.10;;;;;;5039346;28;20193;-78
2021/10/19 00:39:49;;;;;;;16.85;12.23;;;11.60;98.20;;;;;;5030619;28;20057;-78
2021/10/19 00:42:14;;;;;;;20.65;13.18;;;11.60;98.10;;;;;;5030988;28;20033;-79
2021/10/19 00:44:40;;;;;;;18.70;12.85;;;11.60;98.20;;;;;;5030975;28;20030;-79
2021/10/19 00:47:06;;;;;;;20.02;12.68;;;11.50;98.20;;;;;;5038837;28;20124;-78
2021/10/19 00:49:31;;;;;;;20.02;12.40;;;11.50;98.10;;;;;;5050516;28;20082;-80
2021/10/19 00:51:58;;;;;;;18.20;12.32;;;11.60;98.10;;;;;;5049110;28;20029;-80
2021/10/19 00:54:24;;;;;;;17.40;11.98;;;11.60;98.10;;;;;;5031246;28;20466;-79
2021/10/19 00:56:53;;;;;;;18.42;11.90;;;11.60;98.00;;;;;;5033626;28;20034;-79
2021/10/19 00:59:18;;;;;;;18.42;12.02;;;11.60;98.00;;;;;;5019228;28;20029;-79
2021/10/19 01:01:44;;;;;;;15.95;11.55;;;11.60;98.00;;;;;;5033204;28;20087;-79
2021/10/19 01:04:09;;;;;;;17.77;11.88;;;11.50;97.90;;;;;;5034241;28;20037;-80
2021/10/19 01:06:35;;;;;;;15.93;11.27;;;11.60;97.80;;;;;;5051259;28;20044;-79
2021/10/19 01:09:01;;;;;;;16.80;11.52;;;11.50;97.70;;;;;;5042606;28;20390;-78
2021/10/19 01:11:26;;;;;;;16.45;11.52;;;11.60;97.70;;;;;;5029806;28;20106;-78
2021/10/19 01:13:52;;;;;;;15.52;11.40;;;11.50;97.70;;;;;;5041425;28;20028;-79
2021/10/19 01:16:18;;;;;;;16.75;12.40;;;11.60;97.80;;;;;;5037114;28;20112;-79
2021/10/19 01:18:43;;;;;;;15.98;11.38;;;11.60;97.70;;;;;;5047114;28;20041;-79
2021/10/19 01:21:09;;;;;;;16.10;10.95;;;11.60;97.70;;;;;;5036538;28;20033;-79
2021/10/19 01:23:35;;;;;;;19.77;12.77;;;11.60;97.60;;;;;;5029504;28;20041;-78
2021/10/19 01:26:06;;;;;;;17.05;11.60;;;11.60;97.50;;;;;;5034484;28;20025;-80
2021/10/19 01:28:33;;;;;;;21.48;12.60;;;11.60;97.50;;;;;;5018795;28;20370;-79
2021/10/19 01:31:00;;;;;;;18.05;11.40;;;11.60;97.50;;;;;;5037934;28;20091;-80
2021/10/19 01:33:26;;;;;;;17.05;11.68;;;11.70;97.40;;;;;;5030463;28;20033;-80
2021/10/19 01:35:52;;;;;;;20.58;12.32;;;11.60;97.30;;;;;;5030271;28;20060;-79
2021/10/19 01:38:23;;;;;;;22.80;11.82;;;11.60;97.30;;;;;;5029690;28;20045;-78
2021/10/19 01:40:50;;;;;;;17.88;12.23;;;11.60;97.20;;;;;;5027808;28;20060;-77
2021/10/19 01:43:20;;;;;;;17.58;11.30;;;11.70;97.30;;;;;;5036587;28;20119;-77
2021/10/19 01:45:51;;;;;;;17.15;11.15;;;11.70;97.30;;;;;;5041948;28;20771;-77
2021/10/19 01:48:17;;;;;;;18.08;11.68;;;11.60;97.20;;;;;;5031468;28;20543;-77
2021/10/19 01:50:43;;;;;;;18.77;12.35;;;11.70;97.20;;;;;;5033699;28;20061;-77
2021/10/19 01:53:09;;;;;;;16.88;10.65;;;11.60;97.20;;;;;;5043847;28;20438;-77
2021/10/19 01:55:36;;;;;;;16.95;11.32;;;11.60;97.20;;;;;;5035192;28;20079;-77
2021/10/19 01:58:01;;;;;;;16.02;11.65;;;11.70;97.20;;;;;;5045490;28;20033;-77
2021/10/19 02:00:27;;;;;;;18.38;12.52;;;11.70;97.10;;;;;;5036721;28;20037;-78
2021/10/19 02:02:52;;;;;;;16.77;11.77;;;11.70;97.10;;;;;;5030871;28;20029;-78
2021/10/19 02:05:18;;;;;;;16.42;11.30;;;11.70;97.10;;;;;;5034083;28;20643;-77
2021/10/19 02:07:43;;;;;;;15.80;10.65;;;11.60;97.10;;;;;;5033915;28;20038;-77
2021/10/19 02:10:11;;;;;;;16.08;11.05;;;11.60;97.20;;;;;;5034412;28;20037;-77
2021/10/19 02:12:36;;;;;;;16.23;11.00;;;11.60;97.10;;;;;;5051016;28;20462;-77
2021/10/19 02:15:04;;;;;;;15.13;10.57;;;11.50;97.10;;;;;;5032839;28;20060;-77
2021/10/19 02:17:29;;;;;;;16.23;12.15;;;11.50;97.00;;;;;;5035202;28;20386;-78
2021/10/19 02:19:55;;;;;;;17.85;11.75;;;11.50;97.00;;;;;;5030253;28;20029;-78
2021/10/19 02:22:20;;;;;;;14.23;10.52;;;11.50;97.10;;;;;;5033931;28;20032;-77
2021/10/19 02:24:46;;;;;;;17.20;11.55;;;11.50;97.10;;;;;;5043773;28;20041;-78
2021/10/19 02:27:11;;;;;;;16.13;11.50;;;11.50;97.20;;;;;;5035762;28;20382;-78
2021/10/19 02:29:37;;;;;;;16.98;12.50;;;11.50;97.20;;;;;;5047155;28;20041;-77
2021/10/19 02:32:03;;;;;;;16.38;12.25;;;11.50;97.30;;;;;;5031195;28;20112;-78
2021/10/19 02:34:29;;;;;;;16.08;11.57;;;11.50;97.20;;;;;;5029226;28;20040;-78
2021/10/19 02:36:55;;;;;;;14.90;10.45;;;11.50;97.20;;;;;;5030472;28;20098;-78
2021/10/19 02:39:21;;;;;;;14.90;10.82;;;11.50;97.20;;;;;;5030112;28;20029;-78
2021/10/19 02:41:46;;;;;;;15.80;10.45;;;11.50;97.20;;;;;;5049444;28;20039;-78
2021/10/19 02:44:12;;;;;;;16.20;10.43;;;11.50;97.10;;;;;;5037038;28;20409;-78
2021/10/19 02:46:37;;;;;;;16.55;11.00;;;11.50;97.00;;;;;;5030559;28;20033;-78
2021/10/19 02:49:04;;;;;;;17.10;11.48;;;11.50;96.90;;;;;;5037919;28;20536;-78
2021/10/19 02:51:30;;;;;;;15.95;11.25;;;11.50;96.90;;;;;;5035277;28;20025;-78
2021/10/19 02:53:56;;;;;;;16.60;11.43;;;11.50;96.90;;;;;;5031730;28;20052;-78
2021/10/19 02:56:22;;;;;;;15.77;10.52;;;11.60;96.80;;;;;;5028311;28;20033;-78
2021/10/19 02:58:47;;;;;;;20.38;12.23;;;11.60;96.80;;;;;;5028447;28;20053;-78
2021/10/19 03:01:13;;;;;;;16.63;11.40;;;11.50;96.80;;;;;;5055790;28;20029;-78
2021/10/19 03:03:39;;;;;;;15.55;10.93;;;11.50;96.90;;;;;;5032245;28;20034;-78
2021/10/19 03:06:05;;;;;;;17.35;11.38;;;11.50;96.90;;;;;;5027933;28;20044;-78
2021/10/19 03:08:30;;;;;;;18.75;11.93;;;11.60;96.80;;;;;;5027527;28;20116;-77
2021/10/19 03:10:56;;;;;;;18.33;12.02;;;11.60;96.80;;;;;;5029473;28;20465;-79
2021/10/19 03:13:22;;;;;;;16.05;10.57;;;11.50;96.90;;;;;;5027198;28;20029;-77
2021/10/19 03:15:47;;;;;;;16.63;11.43;;;11.50;96.80;;;;;;5034816;28;20083;-78
2021/10/19 03:18:13;;;;;;;17.25;11.50;;;11.50;96.90;;;;;;5028532;28;20037;-78
2021/10/19 03:20:38;;;;;;;16.27;10.25;;;11.50;96.90;;;;;;5028017;28;20032;-79
2021/10/19 03:23:04;;;;;;;18.10;10.48;;;11.50;97.00;;;;;;5027582;28;20030;-78
2021/10/19 03:25:29;;;;;;;18.67;12.55;;;11.50;97.00;;;;;;5023835;28;20088;-79
2021/10/19 03:27:55;;;;;;;17.92;12.00;;;11.50;96.90;;;;;;5009411;28;20455;-79
2021/10/19 03:30:20;;;;;;;16.60;11.98;;;11.50;96.90;;;;;;5010052;28;20034;-78
2021/10/19 03:32:46;;;;;;;18.42;10.68;;;11.50;96.80;;;;;;5020241;28;20228;-79
2021/10/19 03:35:11;;;;;;;23.45;11.43;;;11.50;96.90;;;;;;5027811;28;20041;-77
2021/10/19 03:37:37;;;;;;;14.98;10.00;;;11.50;96.80;;;;;;5028730;28;20053;-78
2021/10/19 03:40:04;;;;;;;18.27;11.07;;;11.60;96.80;;;;;;5037847;28;20445;-78
2021/10/19 03:42:29;;;;;;;17.05;11.45;;;11.60;96.70;;;;;;5036810;28;20538;-78
2021/10/19 03:44:55;;;;;;;16.13;11.02;;;11.60;96.80;;;;;;5030879;28;20104;-77
2021/10/19 03:47:20;;;;;;;18.63;11.90;;;11.60;96.80;;;;;;5030329;28;20107;-77
2021/10/19 03:49:46;;;;;;;20.27;12.30;;;11.50;97.10;;;;;;5029272;28;20041;-78
2021/10/19 03:52:11;;;;;;;17.05;11.02;;;11.50;96.90;;;;;;5029196;28;20494;-77
2021/10/19 03:54:37;;;;;;;16.58;11.27;;;11.50;96.80;;;;;;5029010;28;20479;-77
2021/10/19 03:57:05;;;;;;;20.90;11.80;;;11.60;96.70;;;;;;5033392;28;20025;-77
2021/10/19 03:59:31;;;;;;;19.77;11.57;;;11.70;96.80;;;;;;5029891;28;20051;-77
2021/10/19 04:01:56;;;;;;;16.45;11.63;;;11.60;96.80;;;;;;5034539;28;20564;-77
2021/10/19 04:04:22;;;;;;;16.77;12.40;;;11.60;96.70;;;;;;5029841;28;20030;-78
2021/10/19 04:06:48;;;;;;;17.25;11.45;;;11.60;96.70;;;;;;5029590;28;20131;-77
2021/10/19 04:09:13;;;;;;;15.88;10.82;;;11.70;96.80;;;;;;5033049;28;20041;-77
2021/10/19 04:11:39;;;;;;;16.25;11.25;;;11.70;96.90;;;;;;5031621;28;20034;-78
2021/10/19 04:14:05;;;;;;;16.80;11.70;;;11.60;96.90;;;;;;5043939;28;20461;-78
2021/10/19 04:16:30;;;;;;;17.05;12.35;;;11.70;96.80;;;;;;5039516;28;20021;-77
2021/10/19 04:18:56;;;;;;;17.23;11.63;;;11.70;96.90;;;;;;5030315;28;20587;-77
2021/10/19 04:21:21;;;;;;;18.08;13.15;;;11.70;96.80;;;;;;5027557;28;20029;-77
2021/10/19 04:23:47;;;;;;;18.40;12.63;;;11.70;96.90;;;;;;5038133;28;20107;-78
2021/10/19 04:26:13;;;;;;;16.80;11.10;;;11.70;97.00;;;;;;5032717;28;20025;-78
2021/10/19 04:28:40;;;;;;;20.48;12.20;;;11.60;96.80;;;;;;5030036;28;20526;-78
2021/10/19 04:31:06;;;;;;;19.48;11.50;;;11.60;96.80;;;;;;5031772;28;20107;-79
2021/10/19 04:33:31;;;;;;;19.23;12.07;;;11.70;96.90;;;;;;5032124;28;20064;-79
2021/10/19 04:35:57;;;;;;;19.90;11.80;;;11.60;96.80;;;;;;5032676;28;20037;-79
2021/10/19 04:38:22;;;;;;;17.90;12.65;;;11.70;97.00;;;;;;5031637;28;20108;-79
2021/10/19 04:40:48;;;;;;;16.52;12.45;;;11.70;97.00;;;;;;5033992;28;20583;-78
2021/10/19 04:43:13;;;;;;;18.52;11.80;;;11.70;96.90;;;;;;5030746;28;20041;-78
2021/10/19 04:45:39;;;;;;;17.63;11.60;;;11.70;96.80;;;;;;5031972;28;20493;-78
2021/10/19 04:48:04;;;;;;;19.58;12.50;;;11.70;96.90;;;;;;5033841;28;20037;-78
2021/10/19 04:50:31;;;;;;;20.38;12.70;;;11.70;96.80;;;;;;5031362;28;20532;-80
2021/10/19 04:52:56;;;;;;;20.38;11.88;;;11.70;96.80;;;;;;5038571;28;20055;-78
2021/10/19 04:55:22;;;;;;;18.13;12.20;;;11.70;97.00;;;;;;5050709;28;20033;-78
2021/10/19 04:57:47;;;;;;;16.60;10.98;;;11.70;96.90;;;;;;5031733;28;20344;-79
2021/10/19 05:00:13;;;;;;;18.23;11.48;;;11.70;96.80;;;;;;5033287;28;20100;-78
2021/10/19 05:02:47;;;;;;;16.90;10.57;;;11.80;96.90;;;;;;5020588;28;20049;-78
2021/10/19 05:05:14;;;;;;;20.30;12.57;;;11.80;96.80;;;;;;5022046;28;20041;-78
2021/10/19 05:07:40;;;;;;;17.73;12.15;;;11.80;96.80;;;;;;5025641;28;20056;-79
2021/10/19 05:10:08;;;;;;;19.15;13.00;;;11.80;96.70;;;;;;5027865;28;20033;-79
2021/10/19 05:12:33;;;;;;;18.65;12.00;;;11.80;96.70;;;;;;5029200;28;20036;-79
2021/10/19 05:14:59;;;;;;;18.52;12.63;;;11.80;96.70;;;;;;5028644;28;20033;-77
2021/10/19 05:17:24;;;;;;;17.98;12.40;;;11.80;96.60;;;;;;5027977;28;20063;-79
2021/10/19 05:19:50;;;;;;;17.85;12.77;;;11.90;96.70;;;;;;5026606;28;20079;-78
2021/10/19 05:22:17;;;;;;;19.15;12.27;;;11.80;96.60;;;;;;5028371;28;20541;-79
2021/10/19 05:24:43;;;;;;;16.92;12.43;;;11.90;96.60;;;;;;5027518;28;20129;-78
2021/10/19 05:27:08;;;;;;;17.65;11.93;;;11.90;96.70;;;;;;5019479;28;20030;-78
2021/10/19 05:29:34;;;;;;;16.67;11.32;;;11.90;96.70;;;;;;5011699;28;20037;-78
2021/10/19 05:31:59;;;;;;;18.48;12.82;;;11.90;96.60;;;;;;5029091;28;20091;-78
2021/10/19 05:34:25;;;;;;;22.00;12.15;;;11.90;96.60;;;;;;5029524;28;20545;-78
2021/10/19 05:36:50;;;;;;;17.02;11.13;;;11.90;96.60;;;;;;5024356;28;20048;-79
2021/10/19 05:39:17;;;;;;;18.67;11.95;;;12.00;96.60;;;;;;5026677;28;20040;-78
2021/10/19 05:41:43;;;;;;;17.23;11.73;;;11.90;96.60;;;;;;5026269;28;20137;-79
2021/10/19 05:44:09;;;;;;;20.58;13.23;;;11.90;96.60;;;;;;5042695;28;20817;-79
2021/10/19 05:46:35;;;;;;;18.50;11.63;;;11.90;96.60;;;;;;5019982;28;20033;-79
2021/10/19 05:49:00;;;;;;;17.90;12.00;;;11.90;96.60;;;;;;5026636;28;20034;-77
2021/10/19 05:51:26;;;;;;;21.27;12.15;;;11.90;96.50;;;;;;5015012;28;20108;-77
2021/10/19 05:53:51;;;;;;;16.23;12.13;;;11.90;96.60;;;;;;5022534;28;20077;-79
2021/10/19 05:56:17;;;;;;;17.45;12.13;;;11.90;96.70;;;;;;5024482;28;20038;-78
2021/10/19 05:58:43;;;;;;;18.23;12.18;;;11.90;96.70;;;;;;5026709;28;20045;-78
2021/10/19 06:01:08;;;;;;;17.77;11.45;;;11.90;96.80;;;;;;5034266;28;20032;-77
2021/10/19 06:03:34;;;;;;;18.13;11.88;;;12.00;96.90;;;;;;5026594;28;20077;-78
2021/10/19 06:05:59;;;;;;;20.58;11.32;;;12.00;96.80;;;;;;5024949;28;20034;-78
2021/10/19 06:08:24;;;;;;;16.92;11.30;;;12.00;96.80;;;;;;5039332;28;20046;-79
2021/10/19 06:10:50;;;;;;;22.05;12.93;;;12.00;96.80;;;;;;5029522;28;20033;-77
2021/10/19 06:13:16;;;;;;;18.75;12.38;;;12.00;96.80;;;;;;5025850;28;20072;-79
2021/10/19 06:15:42;;;;;;;17.05;12.02;;;12.10;96.70;;;;;;5020606;28;20561;-78
2021/10/19 06:18:08;;;;;;;20.90;11.70;;;12.10;96.70;;;;;;5026709;28;20087;-78
2021/10/19 06:20:34;;;;;;;15.80;11.00;;;12.20;96.60;;;;;;5035095;28;20033;-78
2021/10/19 06:22:59;;;;;;;17.88;11.52;;;12.20;96.50;;;;;;5022764;28;20045;-80
2021/10/19 06:25:25;;;;;;;18.63;11.63;;;12.20;96.60;;;;;;5024213;28;20041;-78
2021/10/19 06:27:50;;;;;;;18.25;12.38;;;12.20;96.60;;;;;;5026819;28;20068;-79
2021/10/19 06:30:16;;;;;;;18.42;11.63;;;12.20;96.50;;;;;;5027071;28;20033;-78
2021/10/19 06:32:42;;;;;;;18.15;11.32;;;12.30;96.40;;;;;;5027541;28;20071;-78
2021/10/19 06:35:09;;;;;;;17.13;10.60;;;12.30;96.20;;;;;;5030477;28;21681;-79
2021/10/19 06:37:35;;;;;;;16.05;10.43;;;12.30;96.00;;;;;;5034040;28;20416;-79
2021/10/19 06:40:00;;;;;;;14.10;9.95;;;12.30;95.90;;;;;;5035547;28;20057;-78
2021/10/19 06:42:26;;;;;;;18.83;11.35;;;12.30;96.10;;;;;;5030064;28;20129;-78
2021/10/19 06:44:51;;;;;;;18.10;11.05;;;12.40;95.90;;;;;;5043956;28;20033;-79
2021/10/19 06:47:17;;;;;;;20.48;11.38;;;12.40;96.00;;;;;;5027608;28;20026;-78
2021/10/19 06:49:43;;;;;;;16.17;9.95;;;12.40;95.90;;;;;;5024991;28;20115;-79
2021/10/19 06:52:09;;;;;;;17.65;10.93;;;12.50;95.90;;;;;;5026166;28;20037;-80
2021/10/19 06:54:34;;;;;;;16.10;10.50;;;12.50;95.60;;;;;;5025086;28;20030;-79
2021/10/19 06:57:00;;;;;;;17.13;10.88;;;12.60;95.40;;;;;;5034188;28;20668;-81
2021/10/19 06:59:25;;;;;;;15.75;10.38;;;12.60;95.30;;;;;;5029250;28;20753;-80
2021/10/19 07:01:51;;;;;;;15.43;9.80;;;12.60;95.00;;;;;;5039419;28;20045;-81
2021/10/19 07:04:16;;;;;;;18.65;11.18;;;12.60;95.30;;;;;;5041375;28;20025;-81
2021/10/19 07:06:42;;;;;;;14.48;10.65;;;12.60;95.20;;;;;;5025022;28;20383;-80
2021/10/19 07:09:08;;;;;;;13.52;10.27;;;12.70;95.10;;;;;;5037116;28;20033;-80
2021/10/19 07:11:33;;;;;;;18.65;11.10;;;12.60;95.20;;;;;;5036052;28;20768;-80
2021/10/19 07:13:59;;;;;;;21.08;11.80;;;12.70;95.20;;;;;;5031061;28;20078;-78
2021/10/19 07:16:24;;;;;;;14.88;10.63;;;12.80;95.00;;;;;;5026424;28;20030;-80
2021/10/19 07:18:50;;;;;;;15.02;10.57;;;12.80;95.30;;;;;;5034143;28;20532;-81
2021/10/19 07:21:15;;;;;;;16.38;10.80;;;12.90;94.60;;;;;;5023515;28;20041;-81
2021/10/19 07:23:41;;;;;;;15.40;10.73;;;12.90;94.50;;;;;;5033478;28;20036;-80
2021/10/19 07:26:07;;;;;;;16.38;10.05;;;12.90;94.70;;;;;;5030695;28;20057;-80
2021/10/19 07:28:32;;;;;;;16.17;10.73;;;12.90;94.50;;;;;;5023900;28;20076;-80
2021/10/19 07:30:58;;;;;;;16.38;9.48;;;13.00;94.40;;;;;;5024963;28;20037;-80
2021/10/19 07:33:23;;;;;;;14.75;10.70;;;13.00;94.60;;;;;;5027167;28;20037;-81
2021/10/19 07:35:49;;;;;;;14.80;10.27;;;13.10;94.30;;;;;;5016712;28;20034;-80
2021/10/19 07:38:16;;;;;;;13.20;9.68;;;13.20;94.10;;;;;;5015102;28;20056;-79
2021/10/19 07:40:41;;;;;;;13.88;9.82;;;13.30;93.90;;;;;;5017752;28;20045;-80
2021/10/19 07:43:07;;;;;;;15.00;10.20;;;13.30;93.90;;;;;;5031720;28;20434;-78
2021/10/19 07:45:34;;;;;;;17.77;10.00;;;13.30;94.20;;;;;;5024772;28;20064;-79
2021/10/19 07:48:01;;;;;;;14.70;9.70;;;13.40;94.30;;;;;;5029071;28;20032;-78
2021/10/19 07:50:29;;;;;;;16.70;10.60;;;13.40;94.20;;;;;;5026945;28;20112;-79
2021/10/19 07:52:56;;;;;;;15.23;9.88;;;13.50;94.10;;;;;;5018890;28;20072;-78
2021/10/19 07:55:22;;;;;;;15.57;10.23;;;13.60;93.80;;;;;;5029755;28;20029;-78
2021/10/19 07:57:50;;;;;;;13.63;9.45;;;13.60;94.20;;;;;;5033883;28;20532;-79
2021/10/19 08:00:23;;;;;;;17.60;10.13;;;13.70;93.70;;;;;;5016183;28;20469;-79
2021/10/19 08:02:49;;;;;;;15.77;9.43;;;13.70;93.10;;;;;;5025528;28;20143;-79
2021/10/19 08:05:15;;;;;;;15.48;9.85;;;13.80;93.20;;;;;;5025261;28;20710;-78
2021/10/19 08:07:45;;;;;;;12.65;8.95;;;13.80;92.90;;;;;;5025052;28;20025;-79
2021/10/19 08:10:22;;;;;;;14.63;9.43;;;13.90;93.30;;;;;;5026325;28;20029;-79
2021/10/19 08:12:49;;;;;;;16.77;10.15;;;14.00;92.80;;;;;;5026083;28;20066;-79
2021/10/19 08:15:16;;;;;;;14.35;9.85;;;14.00;92.90;;;;;;5025659;28;20090;-79
2021/10/19 08:17:42;;;;;;;12.05;8.80;;;14.00;93.00;;;;;;5029830;28;20025;-78
2021/10/19 08:20:10;;;;;;;14.68;10.27;;;14.00;93.10;;;;;;5023151;28;20080;-78
2021/10/19 08:22:35;;;;;;;18.58;10.07;;;14.10;93.10;;;;;;5025329;28;20119;-78
2021/10/19 08:25:05;;;;;;;13.40;9.32;;;14.20;92.80;;;;;;5026012;28;20426;-78
2021/10/19 08:27:30;;;;;;;14.27;9.65;;;14.30;92.70;;;;;;5028180;28;20108;-79
2021/10/19 08:29:56;;;;;;;12.93;9.23;;;14.30;92.80;;;;;;5026972;28;20108;-78
2021/10/19 08:32:21;;;;;;;13.23;9.25;;;14.40;92.40;;;;;;5025582;28;20120;-79
2021/10/19 08:34:47;;;;;;;13.32;10.02;;;14.50;92.00;;;;;;5023959;28;20034;-79
2021/10/19 08:37:13;;;;;;;13.20;8.95;;;14.50;92.70;;;;;;5024462;28;20035;-79
2021/10/19 08:39:39;;;;;;;14.48;9.77;;;14.50;92.20;;;;;;5026280;28;20044;-79
2021/10/19 08:42:05;;;;;;;12.82;9.45;;;14.60;92.30;;;;;;5025578;28;20029;-79
2021/10/19 08:44:30;;;;;;;16.52;10.68;;;14.60;92.20;;;;;;5026778;28;20051;-79
2021/10/19 08:46:56;;;;;;;14.10;9.38;;;14.60;92.40;;;;;;5023819;28;20061;-79
2021/10/19 08:49:21;;;;;;;16.52;10.60;;;14.60;92.30;;;;;;5040946;28;20441;-79
2021/10/19 08:51:47;;;;;;;16.58;9.30;;;14.70;92.80;;;;;;5027029;28;20037;-78
2021/10/19 08:54:12;;;;;;;15.43;9.75;;;14.80;92.50;;;;;;5027568;28;20075;-79
2021/10/19 08:56:42;;;;;;;15.52;10.07;;;14.90;92.30;;;;;;5036290;28;20267;-79
2021/10/19 08:59:09;;;;;;;13.82;8.93;;;14.90;91.90;;;;;;5038466;28;20065;-79
2021/10/19 09:01:39;;;;;;;14.15;9.13;;;15.00;92.20;;;;;;5029775;28;20397;-78
2021/10/19 09:04:10;;;;;;;13.98;9.25;;;15.10;92.30;;;;;;5029165;28;20057;-79
2021/10/19 09:06:37;;;;;;;12.43;9.15;;;15.20;92.20;;;;;;5029066;28;20047;-79
2021/10/19 09:09:24;;;;;;;12.82;8.63;;;15.30;91.70;;;;;;5028825;28;20036;-78
2021/10/19 09:11:52;;;;;;;14.68;9.13;;;15.30;91.80;;;;;;5036458;28;20486;-78
2021/10/19 09:14:20;;;;;;;12.55;8.55;;;15.40;91.80;;;;;;5037011;28;20088;-79
2021/10/19 09:16:48;;;;;;;11.02;8.02;;;15.40;91.90;;;;;;5038703;28;20036;-79
2021/10/19 09:19:21;;;;;;;13.35;9.32;;;15.50;92.00;;;;;;5046392;28;20035;-78
2021/10/19 09:21:47;;;;;;;;;;;15.50;92.00;;;;;;5047190;28;20041;-79
2021/10/19 09:24:17;;;;;;;12.77;8.38;;;15.60;91.80;;;;;;5038514;28;19916;-79
2021/10/19 09:26:56;;;;;;;14.40;8.73;;;15.70;91.50;;;;;;5034947;28;20490;-80
2021/10/19 09:29:22;;;;;;;16.08;8.50;;;15.80;91.30;;;;;;5045610;28;20041;-79
2021/10/19 09:31:58;;;;;;;12.60;8.98;;;15.80;91.40;;;;;;5038492;28;20493;-81
2021/10/19 09:34:28;;;;;;;14.98;8.95;;;15.90;91.30;;;;;;5048188;28;20032;-78
2021/10/19 09:36:54;;;;;;;13.88;7.53;;;15.90;91.60;;;;;;5017943;28;20513;-79
2021/10/19 09:39:38;;;;;;;14.00;8.25;;;16.00;91.10;;;;;;5014048;28;20037;-79
2021/10/19 09:42:07;;;;;;;11.30;8.27;;;16.10;91.10;;;;;;5020055;28;20041;-79
2021/10/19 09:44:33;;;;;;;9.90;7.25;;;16.10;90.90;;;;;;5047784;28;20044;-79
2021/10/19 09:47:00;;;;;;;10.50;7.32;;;16.20;91.30;;;;;;5039784;28;20371;-79
2021/10/19 09:49:27;;;;;;;10.95;7.80;;;16.30;90.70;;;;;;5031115;28;20040;-79
2021/10/19 09:51:52;;;;;;;10.88;7.90;;;16.30;90.60;;;;;;5027831;28;20168;-79
2021/10/19 09:54:20;;;;;;;10.13;8.02;;;16.30;91.00;;;;;;5027814;28;20524;-79
2021/10/19 09:56:47;;;;;;;9.55;7.65;;;16.40;90.60;;;;;;5028268;28;20428;-79
2021/10/19 09:59:15;;;;;;;12.10;7.45;;;16.50;91.10;;;;;;5029264;28;20025;-79
2021/10/19 10:01:41;;;;;;;12.32;7.88;;;16.60;90.40;;;;;;5035457;28;20037;-79
2021/10/19 10:04:07;;;;;;;12.15;7.15;;;16.60;90.40;;;;;;5032198;28;20061;-79
2021/10/19 10:06:34;;;;;;;9.20;6.47;;;16.70;90.40;;;;;;5042410;28;20036;-78
2021/10/19 10:09:01;;;;;;;14.18;6.60;;;16.80;90.20;;;;;;5037089;28;20111;-80
2021/10/19 10:11:27;;;;;;;7.65;5.82;;;16.90;90.40;;;;;;5028006;28;20030;-80
2021/10/19 10:13:56;;;;;;;10.88;6.93;;;17.00;90.20;;;;;;5035808;28;20031;-79
2021/10/19 10:16:21;;;;;;;7.60;6.00;;;17.10;90.10;;;;;;5017057;28;20029;-80
2021/10/19 10:18:47;;;;;;;7.28;5.57;;;17.20;89.50;;;;;;5028046;28;20035;-81
2021/10/19 10:21:18;;;;;;;9.48;6.10;;;17.30;89.80;;;;;;5032874;28;20512;-80
2021/10/19 10:23:45;;;;;;;8.40;5.68;;;17.40;89.70;;;;;;5042200;28;20435;-79
2021/10/19 10:26:25;;;;;;;9.35;5.72;;;17.50;90.10;;;;;;5033269;28;20473;-79
2021/10/19 10:28:51;;;;;;;6.78;5.05;;;17.60;89.00;;;;;;5030778;28;20041;-79
2021/10/19 10:31:23;;;;;;;7.18;5.32;;;17.70;90.00;;;;;;5046531;28;20091;-80
2021/10/19 10:34:00;;;;;;;8.87;5.27;;;17.80;89.50;;;;;;5031205;28;20156;-80
2021/10/19 10:36:42;;;;;;;8.52;4.85;;;17.90;88.30;;;;;;5031350;28;20108;-79
2021/10/19 10:39:08;;;;;;;6.72;4.90;;;18.00;88.80;;;;;;5024683;28;20029;-79
2021/10/19 10:41:37;;;;;;;7.88;5.07;;;18.10;87.90;;;;;;5027015;28;20021;-78
2021/10/19 10:44:03;;;;;;;6.25;4.53;;;18.10;88.00;;;;;;5027038;28;20057;-79
2021/10/19 10:46:29;;;;;;;5.68;3.70;;;18.10;88.30;;;;;;5029446;28;20025;-78
2021/10/19 10:48:56;;;;;;;5.45;4.20;;;18.20;88.00;;;;;;5026024;28;20025;-79
2021/10/19 10:51:30;;;;;;;7.72;4.85;;;18.20;88.20;;;;;;5026379;28;20394;-79
2021/10/19 10:53:56;;;;;;;5.32;3.65;;;18.20;88.10;;;;;;5026751;28;20619;-78
2021/10/19 10:56:22;;;;;;;5.00;3.15;;;18.20;88.20;;;;;;5025137;28;20029;-78
2021/10/19 10:58:49;;;;;;;4.95;3.58;;;18.30;89.70;;;;;;5025889;28;20029;-78
2021/10/19 11:01:17;;;;;;;8.55;4.18;;;18.30;90.10;;;;;;5026526;28;20550;-78
2021/10/19 11:03:44;;;;;;;3.60;3.03;;;18.40;89.70;;;;;;5026494;28;20033;-78
2021/10/19 11:06:16;;;;;;;6.07;3.28;;;18.50;89.00;;;;;;5026252;28;20037;-78
2021/10/19 11:08:43;;;;;;;6.20;3.50;;;18.70;88.80;;;;;;5023979;28;20033;-78
2021/10/19 11:11:15;;;;;;;4.60;2.50;;;18.80;87.90;;;;;;5026433;28;20116;-78
2021/10/19 11:14:06;;;;;;;6.00;3.20;;;18.90;88.80;;;;;;5024703;28;20025;-78
2021/10/19 11:16:45;;;;;;;3.42;2.42;;;19.10;89.40;;;;;;5006048;28;20029;-78
2021/10/19 11:19:22;;;;;;;4.47;2.60;;;19.20;89.00;;;;;;5020858;28;20037;-78
2021/10/19 11:21:51;;;;;;;3.67;2.70;;;19.20;88.10;;;;;;5020831;28;20458;-78
2021/10/19 11:24:16;;;;;;;3.85;2.58;;;19.20;88.80;;;;;;5031914;28;20064;-78
2021/10/19 11:26:42;;;;;;;3.45;2.53;;;19.30;89.40;;;;;;5044519;28;20764;-79
2021/10/19 11:29:08;;;;;;;3.38;2.30;;;19.30;87.50;;;;;;5028177;28;20047;-78
2021/10/19 11:31:35;;;;;;;7.57;2.50;;;19.10;88.40;;;;;;5027672;28;20033;-78
2021/10/19 11:34:01;;;;;;;2.38;2.03;;;19.00;89.60;;;;;;5029789;28;20494;-78
2021/10/19 11:36:28;;;;;;;4.50;2.38;;;19.00;89.40;;;;;;5026463;28;20033;-78
2021/10/19 11:38:55;;;;;;;3.90;2.17;;;19.00;89.30;;;;;;5025335;28;20498;-79
2021/10/19 11:41:24;;;;;;;3.03;2.10;;;19.00;90.10;;;;;;5025930;28;20478;-79
2021/10/19 11:43:59;;;;;;;3.83;2.08;;;18.90;90.60;;;;;;5027264;28;20029;-78
2021/10/19 11:46:27;;;;;;;3.45;1.90;;;18.90;89.60;;;;;;5029339;28;20152;-79
2021/10/19 11:48:55;;;;;;;6.30;2.25;;;18.90;90.10;;;;;;5035423;28;20040;-80
2021/10/19 11:51:23;;;;;;;2.25;1.98;;;18.90;90.30;;;;;;5042887;28;20033;-79
2021/10/19 11:53:49;;;;;;;3.58;1.92;;;18.90;90.00;;;;;;5031568;28;20697;-78
2021/10/19 11:56:16;;;;;;;3.25;2.20;;;19.00;90.40;;;;;;5025973;28;20029;-79
2021/10/19 11:59:00;;;;;;;2.67;2.20;;;19.10;89.90;;;;;;5029002;28;20542;-78
2021/10/19 12:01:27;;;;;;;5.63;2.85;;;19.10;89.50;;;;;;5025797;28;20529;-79
2021/10/19 12:03:59;;;;;;;2.78;2.35;;;19.20;90.00;;;;;;5035893;28;20067;-80
2021/10/19 12:06:27;;;;;;;2.30;2.10;;;19.20;89.80;;;;;;5039966;28;20107;-78
2021/10/19 12:08:53;;;;;;;5.22;2.15;;;19.20;90.00;;;;;;5026206;28;20405;-79
2021/10/19 12:11:22;;;;;;;4.15;2.15;;;19.00;90.10;;;;;;5030014;28;20052;-80
2021/10/19 12:13:56;;;;;;;2.67;2.33;;;18.90;90.20;;;;;;5025360;28;20109;-78
2021/10/19 12:16:25;;;;;;;3.25;2.50;;;18.90;90.40;;;;;;5024937;28;20025;-78
2021/10/19 12:18:51;;;;;;;4.78;2.67;;;18.80;90.30;;;;;;5025234;28;20216;-78
2021/10/19 12:21:16;;;;;;;3.45;2.30;;;18.80;90.70;;;;;;5038616;28;20033;-78
2021/10/19 12:23:56;;;;;;;2.78;2.40;;;18.80;90.70;;;;;;5025794;28;20463;-79
2021/10/19 12:26:23;;;;;;;3.00;2.20;;;18.80;91.30;;;;;;5026089;28;20100;-79
2021/10/19 12:28:51;;;;;;;2.65;2.20;;;18.80;91.00;;;;;;5027116;28;20017;-78
2021/10/19 12:31:18;;;;;;;3.13;2.30;;;18.90;91.20;;;;;;5029344;28;20486;-78